RYR9EN LEPA-LFBO
Flight info
| Callsign | RYR9EN |
|---|---|
| Flight time | 0h 54m |
| Altitude | 34000 |
| Route | DRAGO N863 GIROM A29 ASPET |
| Aircraft | B738/M-SDE3FGILRWY/SB1 |
Departure
| Time | 2026-05-01 08:51 |
|---|---|
| Airport | Palma de Mallorca Airport (LEPA) |
Arrival
| Time | 2026-05-01 09:45 |
|---|---|
| Airport | Toulouse-Blagnac Airport (LFBO) |
| Time | Latitude | Longitude | Altitude | Speed | Heading |
|---|---|---|---|---|---|
| 2026-05-01 08:20 | 39.55003 | 2.73728 | 37 ft | 0 kts | 239° |
| 2026-05-01 08:44 | 39.55013 | 2.73750 | 35 ft | 4 kts | 239° |
| 2026-05-01 08:44 | 39.55027 | 2.73780 | 36 ft | 4 kts | 240° |
| 2026-05-01 08:44 | 39.55038 | 2.73807 | 37 ft | 4 kts | 238° |
| 2026-05-01 08:45 | 39.55055 | 2.73828 | 35 ft | 4 kts | 183° |
| 2026-05-01 08:45 | 39.55078 | 2.73820 | 35 ft | 3 kts | 149° |
| 2026-05-01 08:45 | 39.55084 | 2.73815 | 34 ft | 0 kts | 149° |
| 2026-05-01 08:47 | 39.55081 | 2.73818 | 35 ft | 2 kts | 148° |
| 2026-05-01 08:47 | 39.55052 | 2.73841 | 37 ft | 8 kts | 148° |
| 2026-05-01 08:48 | 39.54992 | 2.73888 | 36 ft | 13 kts | 148° |
| 2026-05-01 08:48 | 39.54903 | 2.73958 | 36 ft | 17 kts | 148° |
| 2026-05-01 08:48 | 39.54815 | 2.73988 | 37 ft | 11 kts | 208° |
| 2026-05-01 08:48 | 39.54750 | 2.73953 | 37 ft | 11 kts | 161° |
| 2026-05-01 08:49 | 39.54685 | 2.73907 | 37 ft | 13 kts | 238° |
| 2026-05-01 08:49 | 39.54626 | 2.73786 | 37 ft | 19 kts | 238° |
| 2026-05-01 08:49 | 39.54560 | 2.73678 | 37 ft | 12 kts | 190° |
| 2026-05-01 08:49 | 39.54483 | 2.73725 | 37 ft | 13 kts | 149° |
| 2026-05-01 08:50 | 39.54432 | 2.73814 | 37 ft | 14 kts | 72° |
| 2026-05-01 08:50 | 39.54524 | 2.74011 | 37 ft | 53 kts | 58° |
| 2026-05-01 08:50 | 39.54842 | 2.74684 | 37 ft | 119 kts | 58° |
| 2026-05-01 08:50 | 39.55362 | 2.75786 | 205 ft | 155 kts | 58° |
| 2026-05-01 08:51 | 39.55897 | 2.76932 | 1044 ft | 148 kts | 59° |
| 2026-05-01 08:51 | 39.56434 | 2.78104 | 1783 ft | 152 kts | 59° |
| 2026-05-01 08:51 | 39.56975 | 2.79294 | 2553 ft | 156 kts | 59° |
| 2026-05-01 08:51 | 39.57534 | 2.80520 | 3288 ft | 162 kts | 60° |
| 2026-05-01 08:52 | 39.58149 | 2.81868 | 3730 ft | 191 kts | 60° |
| 2026-05-01 08:52 | 39.58857 | 2.83411 | 4130 ft | 206 kts | 60° |
| 2026-05-01 08:52 | 39.59606 | 2.85043 | 4679 ft | 215 kts | 61° |
| 2026-05-01 08:52 | 39.60389 | 2.86730 | 5355 ft | 223 kts | 58° |
| 2026-05-01 08:53 | 39.61608 | 2.87994 | 6114 ft | 231 kts | 18° |
| 2026-05-01 08:53 | 39.63209 | 2.88064 | 6989 ft | 236 kts | 348° |
| 2026-05-01 08:53 | 39.64699 | 2.87113 | 7674 ft | 243 kts | 321° |
| 2026-05-01 08:53 | 39.65969 | 2.85555 | 8092 ft | 264 kts | 313° |
| 2026-05-01 08:54 | 39.67268 | 2.83710 | 8392 ft | 287 kts | 311° |
| 2026-05-01 08:54 | 39.68599 | 2.81754 | 9171 ft | 290 kts | 310° |
| 2026-05-01 08:54 | 39.69939 | 2.79784 | 9994 ft | 293 kts | 309° |
| 2026-05-01 08:54 | 39.71305 | 2.77784 | 10636 ft | 303 kts | 310° |
| 2026-05-01 08:55 | 39.72764 | 2.75655 | 10837 ft | 328 kts | 310° |
| 2026-05-01 08:55 | 39.74314 | 2.73406 | 11363 ft | 338 kts | 310° |
| 2026-05-01 08:55 | 39.75894 | 2.71126 | 12164 ft | 339 kts | 310° |
| 2026-05-01 08:55 | 39.77475 | 2.68848 | 13022 ft | 340 kts | 311° |
| 2026-05-01 08:56 | 39.79058 | 2.66572 | 13964 ft | 339 kts | 311° |
| 2026-05-01 08:56 | 39.80646 | 2.64289 | 14728 ft | 343 kts | 311° |
| 2026-05-01 08:56 | 39.82267 | 2.61957 | 15316 ft | 352 kts | 311° |
| 2026-05-01 08:56 | 39.83919 | 2.59578 | 16021 ft | 356 kts | 311° |
| 2026-05-01 08:57 | 39.85573 | 2.57196 | 16937 ft | 355 kts | 311° |
| 2026-05-01 08:57 | 39.87216 | 2.54830 | 17623 ft | 360 kts | 311° |
| 2026-05-01 08:57 | 39.88354 | 2.53188 | 18094 ft | 364 kts | 311° |
| 2026-05-01 08:57 | 39.90068 | 2.50714 | 18642 ft | 372 kts | 311° |
| 2026-05-01 08:58 | 39.91811 | 2.48196 | 19261 ft | 376 kts | 311° |
| 2026-05-01 08:58 | 39.93567 | 2.45659 | 19947 ft | 377 kts | 311° |
| 2026-05-01 08:58 | 39.95323 | 2.43119 | 20677 ft | 378 kts | 310° |
| 2026-05-01 08:58 | 39.97088 | 2.40565 | 21287 ft | 381 kts | 310° |
| 2026-05-01 08:59 | 39.98871 | 2.37982 | 21901 ft | 385 kts | 310° |
| 2026-05-01 08:59 | 40.00671 | 2.35370 | 22461 ft | 390 kts | 310° |
| 2026-05-01 08:59 | 40.02493 | 2.32725 | 23001 ft | 394 kts | 310° |
| 2026-05-01 08:59 | 40.04330 | 2.30058 | 23675 ft | 395 kts | 310° |
| 2026-05-01 09:00 | 40.06172 | 2.27380 | 24211 ft | 398 kts | 310° |
| 2026-05-01 09:00 | 40.08028 | 2.24679 | 24652 ft | 402 kts | 310° |
| 2026-05-01 09:00 | 40.09903 | 2.21947 | 25118 ft | 405 kts | 310° |
| 2026-05-01 09:00 | 40.11788 | 2.19200 | 25617 ft | 407 kts | 310° |
| 2026-05-01 09:01 | 40.13687 | 2.16428 | 26037 ft | 411 kts | 310° |
| 2026-05-01 09:01 | 40.15601 | 2.13633 | 26474 ft | 414 kts | 309° |
| 2026-05-01 09:01 | 40.17523 | 2.10823 | 27023 ft | 414 kts | 309° |
| 2026-05-01 09:01 | 40.19443 | 2.08012 | 27521 ft | 416 kts | 310° |
| 2026-05-01 09:02 | 40.21381 | 2.05173 | 27904 ft | 420 kts | 309° |
| 2026-05-01 09:02 | 40.23334 | 2.02308 | 28265 ft | 424 kts | 310° |
| 2026-05-01 09:02 | 40.25309 | 1.99410 | 28624 ft | 428 kts | 310° |
| 2026-05-01 09:02 | 40.27292 | 1.96498 | 29151 ft | 428 kts | 310° |
| 2026-05-01 09:03 | 40.29261 | 1.93604 | 29845 ft | 423 kts | 309° |
| 2026-05-01 09:03 | 40.31204 | 1.90750 | 30564 ft | 417 kts | 309° |
| 2026-05-01 09:03 | 40.33143 | 1.87895 | 30834 ft | 423 kts | 309° |
| 2026-05-01 09:03 | 40.35116 | 1.84983 | 30957 ft | 431 kts | 309° |
| 2026-05-01 09:04 | 40.37103 | 1.82050 | 31430 ft | 428 kts | 309° |
| 2026-05-01 09:04 | 40.39069 | 1.79149 | 32059 ft | 423 kts | 308° |
| 2026-05-01 09:04 | 40.41012 | 1.76280 | 32650 ft | 418 kts | 308° |
| 2026-05-01 09:04 | 40.42940 | 1.73427 | 33089 ft | 418 kts | 308° |
| 2026-05-01 09:05 | 40.44869 | 1.70569 | 33434 ft | 419 kts | 308° |
| 2026-05-01 09:05 | 40.46809 | 1.67691 | 33712 ft | 421 kts | 308° |
| 2026-05-01 09:05 | 40.48743 | 1.64820 | 33978 ft | 419 kts | 308° |
| 2026-05-01 09:05 | 40.50669 | 1.61960 | 34205 ft | 417 kts | 308° |
| 2026-05-01 09:06 | 40.54517 | 1.56235 | 34205 ft | 417 kts | 308° |
| 2026-05-01 09:06 | 40.58343 | 1.50536 | 34223 ft | 415 kts | 308° |
| 2026-05-01 09:07 | 40.62469 | 1.45284 | 34214 ft | 420 kts | 322° |
| 2026-05-01 09:07 | 40.67552 | 1.41879 | 34225 ft | 425 kts | 335° |
| 2026-05-01 09:08 | 40.73080 | 1.39078 | 34221 ft | 426 kts | 336° |
| 2026-05-01 09:08 | 40.78603 | 1.36266 | 34224 ft | 426 kts | 335° |
| 2026-05-01 09:09 | 40.84117 | 1.33397 | 34221 ft | 426 kts | 335° |
| 2026-05-01 09:09 | 40.89623 | 1.30504 | 34217 ft | 426 kts | 335° |
| 2026-05-01 09:10 | 40.95139 | 1.27598 | 34227 ft | 427 kts | 335° |
| 2026-05-01 09:10 | 41.00652 | 1.24690 | 34215 ft | 426 kts | 335° |
| 2026-05-01 09:11 | 41.06156 | 1.21782 | 34212 ft | 425 kts | 335° |
| 2026-05-01 09:11 | 41.11644 | 1.18877 | 34211 ft | 424 kts | 335° |
| 2026-05-01 09:12 | 41.17334 | 1.16731 | 34208 ft | 430 kts | 351° |
| 2026-05-01 09:12 | 41.23301 | 1.16189 | 34208 ft | 430 kts | 353° |
| 2026-05-01 09:13 | 41.29264 | 1.15630 | 34223 ft | 429 kts | 352° |
| 2026-05-01 09:13 | 41.35215 | 1.14997 | 34216 ft | 429 kts | 352° |
| 2026-05-01 09:14 | 41.41156 | 1.14370 | 34234 ft | 428 kts | 353° |
| 2026-05-01 09:14 | 41.47092 | 1.13747 | 34223 ft | 428 kts | 353° |
| 2026-05-01 09:15 | 41.53033 | 1.13121 | 34229 ft | 428 kts | 353° |
| 2026-05-01 09:15 | 41.58978 | 1.12493 | 34231 ft | 429 kts | 353° |
| 2026-05-01 09:16 | 41.64928 | 1.11863 | 34226 ft | 429 kts | 353° |
| 2026-05-01 09:17 | 41.73763 | 1.10928 | 33584 ft | 417 kts | 353° |
| 2026-05-01 09:17 | 41.76639 | 1.10624 | 33310 ft | 413 kts | 353° |
| 2026-05-01 09:17 | 41.82342 | 1.10016 | 32788 ft | 410 kts | 353° |
| 2026-05-01 09:18 | 41.85181 | 1.09713 | 32525 ft | 408 kts | 353° |
| 2026-05-01 09:18 | 41.90832 | 1.09108 | 32009 ft | 407 kts | 352° |
| 2026-05-01 09:19 | 41.96460 | 1.08506 | 31513 ft | 406 kts | 352° |
| 2026-05-01 09:19 | 41.99275 | 1.08204 | 31276 ft | 405 kts | 352° |
| 2026-05-01 09:19 | 42.02085 | 1.07903 | 31033 ft | 405 kts | 352° |
| 2026-05-01 09:20 | 42.07705 | 1.07300 | 30552 ft | 405 kts | 352° |
| 2026-05-01 09:20 | 42.13314 | 1.06697 | 30040 ft | 404 kts | 352° |
| 2026-05-01 09:21 | 42.18912 | 1.06095 | 29512 ft | 402 kts | 352° |
| 2026-05-01 09:21 | 42.21689 | 1.05797 | 29232 ft | 398 kts | 352° |
| 2026-05-01 09:21 | 42.27182 | 1.05372 | 28292 ft | 398 kts | 356° |
| 2026-05-01 09:22 | 42.32690 | 1.05449 | 27481 ft | 394 kts | 358° |
| 2026-05-01 09:22 | 42.38127 | 1.05567 | 26718 ft | 388 kts | 357° |
| 2026-05-01 09:23 | 42.40812 | 1.05606 | 26369 ft | 384 kts | 357° |
| 2026-05-01 09:23 | 42.46129 | 1.05657 | 25613 ft | 379 kts | 356° |
| 2026-05-01 09:24 | 42.51337 | 1.05688 | 24901 ft | 375 kts | 356° |
| 2026-05-01 09:24 | 42.53984 | 1.05703 | 24500 ft | 375 kts | 356° |
| 2026-05-01 09:24 | 42.59174 | 1.05728 | 23766 ft | 371 kts | 356° |
| 2026-05-01 09:25 | 42.64319 | 1.05754 | 22929 ft | 369 kts | 357° |
| 2026-05-01 09:25 | 42.69409 | 1.05780 | 22205 ft | 363 kts | 358° |
| 2026-05-01 09:26 | 42.71926 | 1.05793 | 21833 ft | 361 kts | 358° |
| 2026-05-01 09:26 | 42.76910 | 1.05820 | 21130 ft | 356 kts | 358° |
| 2026-05-01 09:26 | 42.79376 | 1.05833 | 20780 ft | 353 kts | 358° |
| 2026-05-01 09:27 | 42.84239 | 1.05858 | 20081 ft | 350 kts | 359° |
| 2026-05-01 09:27 | 42.86700 | 1.05873 | 19721 ft | 348 kts | 359° |
| 2026-05-01 09:27 | 42.89086 | 1.05884 | 19402 ft | 347 kts | 359° |
| 2026-05-01 09:28 | 42.91534 | 1.05896 | 19029 ft | 347 kts | 359° |
| 2026-05-01 09:28 | 42.93943 | 1.05911 | 18735 ft | 344 kts | 359° |
| 2026-05-01 09:28 | 42.96305 | 1.05958 | 18593 ft | 336 kts | 360° |
| 2026-05-01 09:28 | 42.98647 | 1.06016 | 18202 ft | 336 kts | 0° |
| 2026-05-01 09:29 | 43.03316 | 1.06137 | 17473 ft | 334 kts | 0° |
| 2026-05-01 09:29 | 43.05618 | 1.06195 | 17161 ft | 329 kts | 0° |
| 2026-05-01 09:30 | 43.10171 | 1.06306 | 16322 ft | 323 kts | 0° |
| 2026-05-01 09:30 | 43.12399 | 1.06359 | 15943 ft | 318 kts | 0° |
| 2026-05-01 09:30 | 43.16782 | 1.06463 | 15049 ft | 316 kts | 0° |
| 2026-05-01 09:31 | 43.18972 | 1.06515 | 14622 ft | 314 kts | 0° |
| 2026-05-01 09:31 | 43.21177 | 1.06567 | 14197 ft | 312 kts | 0° |
| 2026-05-01 09:31 | 43.25487 | 1.06669 | 13292 ft | 307 kts | 0° |
| 2026-05-01 09:32 | 43.27614 | 1.06720 | 12821 ft | 304 kts | 0° |
| 2026-05-01 09:32 | 43.31817 | 1.06819 | 11906 ft | 300 kts | 0° |
| 2026-05-01 09:32 | 43.33897 | 1.06868 | 11466 ft | 297 kts | 0° |
| 2026-05-01 09:33 | 43.35959 | 1.06917 | 11036 ft | 295 kts | 0° |
| 2026-05-01 09:33 | 43.38004 | 1.06966 | 10603 ft | 293 kts | 0° |
| 2026-05-01 09:33 | 43.42059 | 1.07062 | 9721 ft | 289 kts | 1° |
| 2026-05-01 09:34 | 43.44064 | 1.07109 | 9219 ft | 289 kts | 0° |
| 2026-05-01 09:34 | 43.46084 | 1.07157 | 8719 ft | 290 kts | 0° |
| 2026-05-01 09:34 | 43.50085 | 1.07252 | 8255 ft | 282 kts | 1° |
| 2026-05-01 09:35 | 43.52050 | 1.07299 | 7956 ft | 283 kts | 1° |
| 2026-05-01 09:35 | 43.55963 | 1.07393 | 7485 ft | 279 kts | 1° |
| 2026-05-01 09:35 | 43.57883 | 1.07438 | 7193 ft | 275 kts | 1° |
| 2026-05-01 09:36 | 43.59772 | 1.07483 | 6812 ft | 275 kts | 1° |
| 2026-05-01 09:36 | 43.61679 | 1.07529 | 6467 ft | 273 kts | 1° |
| 2026-05-01 09:36 | 43.63567 | 1.07574 | 6098 ft | 270 kts | 1° |
| 2026-05-01 09:36 | 43.65446 | 1.07620 | 5693 ft | 271 kts | 1° |
| 2026-05-01 09:37 | 43.67325 | 1.07665 | 5478 ft | 268 kts | 2° |
| 2026-05-01 09:37 | 43.70948 | 1.07751 | 5239 ft | 254 kts | 2° |
| 2026-05-01 09:37 | 43.72689 | 1.07792 | 5133 ft | 246 kts | 2° |
| 2026-05-01 09:38 | 43.75975 | 1.08155 | 4906 ft | 228 kts | 27° |
| 2026-05-01 09:38 | 43.77134 | 1.09509 | 4847 ft | 214 kts | 57° |
| 2026-05-01 09:38 | 43.77813 | 1.11326 | 4682 ft | 213 kts | 74° |
| 2026-05-01 09:39 | 43.78662 | 1.15260 | 4294 ft | 212 kts | 76° |
| 2026-05-01 09:39 | 43.79062 | 1.17188 | 4153 ft | 205 kts | 84° |
| 2026-05-01 09:39 | 43.78818 | 1.19024 | 3953 ft | 192 kts | 127° |
| 2026-05-01 09:40 | 43.77837 | 1.20218 | 3767 ft | 185 kts | 139° |
| 2026-05-01 09:40 | 43.75977 | 1.22589 | 3319 ft | 181 kts | 142° |
| 2026-05-01 09:40 | 43.74969 | 1.23620 | 3083 ft | 179 kts | 142° |
| 2026-05-01 09:41 | 43.73982 | 1.24637 | 2852 ft | 176 kts | 142° |
| 2026-05-01 09:41 | 43.72385 | 1.26296 | 2455 ft | 169 kts | 142° |
| 2026-05-01 09:41 | 43.71453 | 1.27265 | 2239 ft | 167 kts | 142° |
| 2026-05-01 09:42 | 43.70522 | 1.28232 | 2013 ft | 169 kts | 141° |
| 2026-05-01 09:42 | 43.69582 | 1.29212 | 1781 ft | 169 kts | 141° |
| 2026-05-01 09:42 | 43.67799 | 1.31068 | 1369 ft | 149 kts | 142° |
| 2026-05-01 09:43 | 43.66272 | 1.32656 | 985 ft | 132 kts | 141° |
| 2026-05-01 09:43 | 43.65541 | 1.33416 | 829 ft | 131 kts | 141° |
| 2026-05-01 09:43 | 43.64812 | 1.34175 | 656 ft | 130 kts | 140° |
| 2026-05-01 09:44 | 43.63454 | 1.35591 | 489 ft | 98 kts | 143° |
| 2026-05-01 09:44 | 43.63007 | 1.36054 | 487 ft | 63 kts | 142° |
| 2026-05-01 09:44 | 43.62698 | 1.36377 | 489 ft | 51 kts | 143° |
| 2026-05-01 09:45 | 43.62472 | 1.36612 | 483 ft | 15 kts | 143° |
| 2026-05-01 09:45 | 43.62455 | 1.36822 | 490 ft | 11 kts | 83° |
| 2026-05-01 09:45 | 43.62464 | 1.36929 | 489 ft | 11 kts | 82° |
| 2026-05-01 09:46 | 43.62474 | 1.37033 | 490 ft | 11 kts | 82° |
| 2026-05-01 09:46 | 43.62484 | 1.37136 | 491 ft | 11 kts | 82° |
| 2026-05-01 09:46 | 43.62511 | 1.37248 | 491 ft | 14 kts | 53° |
| 2026-05-01 09:46 | 43.62575 | 1.37364 | 489 ft | 17 kts | 52° |
| 2026-05-01 09:47 | 43.62642 | 1.37474 | 490 ft | 12 kts | 32° |
| 2026-05-01 09:47 | 43.62718 | 1.37443 | 485 ft | 12 kts | 322° |
| 2026-05-01 09:47 | 43.62784 | 1.37391 | 488 ft | 10 kts | 5° |
| 2026-05-01 09:47 | 43.62817 | 1.37468 | 489 ft | 10 kts | 71° |
| 2026-05-01 09:48 | 43.62845 | 1.37552 | 488 ft | 10 kts | 55° |
| 2026-05-01 09:48 | 43.62867 | 1.37593 | 493 ft | 2 kts | 53° |
| 2026-05-01 09:48 | 43.62868 | 1.37593 | 493 ft | 0 kts | 53° |